sensor_id;sensor_type;location;lat;lon;timestamp;P1;durP1;ratioP1;P2;durP2;ratioP2
10166;SDS011;62970;53.130;8.244;2023-02-01T00:02:03;12.77;;;3.50;;
10166;SDS011;62970;53.130;8.244;2023-02-01T00:04:32;13.70;;;3.57;;
10166;SDS011;62970;53.130;8.244;2023-02-01T00:07:02;11.53;;;3.57;;
10166;SDS011;62970;53.130;8.244;2023-02-01T00:09:31;10.53;;;3.47;;
10166;SDS011;62970;53.130;8.244;2023-02-01T00:12:01;14.13;;;3.60;;
10166;SDS011;62970;53.130;8.244;2023-02-01T00:14:30;10.57;;;3.27;;
10166;SDS011;62970;53.130;8.244;2023-02-01T00:17:03;9.77;;;3.33;;
10166;SDS011;62970;53.130;8.244;2023-02-01T00:19:34;9.30;;;3.10;;
10166;SDS011;62970;53.130;8.244;2023-02-01T00:22:03;17.03;;;3.90;;
10166;SDS011;62970;53.130;8.244;2023-02-01T00:24:32;11.97;;;3.47;;
10166;SDS011;62970;53.130;8.244;2023-02-01T00:27:01;13.47;;;3.37;;
10166;SDS011;62970;53.130;8.244;2023-02-01T00:29:30;11.40;;;3.10;;
10166;SDS011;62970;53.130;8.244;2023-02-01T00:32:02;15.03;;;4.23;;
10166;SDS011;62970;53.130;8.244;2023-02-01T00:34:32;15.60;;;3.97;;
10166;SDS011;62970;53.130;8.244;2023-02-01T00:37:01;13.57;;;3.50;;
10166;SDS011;62970;53.130;8.244;2023-02-01T00:39:30;16.47;;;3.37;;
10166;SDS011;62970;53.130;8.244;2023-02-01T00:42:00;14.17;;;3.30;;
10166;SDS011;62970;53.130;8.244;2023-02-01T00:44:30;12.40;;;3.40;;
10166;SDS011;62970;53.130;8.244;2023-02-01T00:47:02;12.70;;;3.50;;
10166;SDS011;62970;53.130;8.244;2023-02-01T00:49:32;11.20;;;3.40;;
10166;SDS011;62970;53.130;8.244;2023-02-01T00:52:02;14.10;;;3.10;;
10166;SDS011;62970;53.130;8.244;2023-02-01T00:54:32;12.60;;;3.27;;
10166;SDS011;62970;53.130;8.244;2023-02-01T00:57:02;18.27;;;3.27;;
10166;SDS011;62970;53.130;8.244;2023-02-01T00:59:32;11.67;;;3.40;;
10166;SDS011;62970;53.130;8.244;2023-02-01T01:02:04;10.53;;;3.10;;
10166;SDS011;62970;53.130;8.244;2023-02-01T01:04:33;12.03;;;3.10;;
10166;SDS011;62970;53.130;8.244;2023-02-01T01:07:02;12.03;;;3.20;;
10166;SDS011;62970;53.130;8.244;2023-02-01T01:09:32;11.10;;;3.23;;
10166;SDS011;62970;53.130;8.244;2023-02-01T01:12:01;11.00;;;2.90;;
10166;SDS011;62970;53.130;8.244;2023-02-01T01:14:31;11.90;;;2.87;;
10166;SDS011;62970;53.130;8.244;2023-02-01T01:17:01;12.57;;;3.53;;
10166;SDS011;62970;53.130;8.244;2023-02-01T01:19:33;14.43;;;3.87;;
10166;SDS011;62970;53.130;8.244;2023-02-01T01:22:02;13.60;;;3.23;;
10166;SDS011;62970;53.130;8.244;2023-02-01T01:24:31;10.37;;;3.43;;
10166;SDS011;62970;53.130;8.244;2023-02-01T01:27:01;12.20;;;4.27;;
10166;SDS011;62970;53.130;8.244;2023-02-01T01:29:30;17.00;;;3.73;;
10166;SDS011;62970;53.130;8.244;2023-02-01T01:31:59;13.77;;;3.53;;
10166;SDS011;62970;53.130;8.244;2023-02-01T01:34:32;12.13;;;3.13;;
10166;SDS011;62970;53.130;8.244;2023-02-01T01:37:02;13.17;;;3.73;;
10166;SDS011;62970;53.130;8.244;2023-02-01T01:39:31;12.70;;;3.43;;
10166;SDS011;62970;53.130;8.244;2023-02-01T01:42:01;13.73;;;3.53;;
10166;SDS011;62970;53.130;8.244;2023-02-01T01:47:26;10.70;;;3.20;;
10166;SDS011;62970;53.130;8.244;2023-02-01T01:50:05;13.00;;;3.60;;
10166;SDS011;62970;53.130;8.244;2023-02-01T01:52:38;9.67;;;3.47;;
10166;SDS011;62970;53.130;8.244;2023-02-01T01:55:10;12.93;;;3.53;;
10166;SDS011;62970;53.130;8.244;2023-02-01T01:57:42;12.30;;;3.60;;
10166;SDS011;62970;53.130;8.244;2023-02-01T02:00:16;9.80;;;3.13;;
10166;SDS011;62970;53.130;8.244;2023-02-01T02:02:50;8.63;;;3.07;;
10166;SDS011;62970;53.130;8.244;2023-02-01T02:05:28;12.37;;;2.93;;
10166;SDS011;62970;53.130;8.244;2023-02-01T02:07:58;9.40;;;3.03;;
10166;SDS011;62970;53.130;8.244;2023-02-01T02:10:29;15.03;;;3.77;;
10166;SDS011;62970;53.130;8.244;2023-02-01T02:13:10;13.23;;;3.53;;
10166;SDS011;62970;53.130;8.244;2023-02-01T02:15:42;12.17;;;3.07;;
10166;SDS011;62970;53.130;8.244;2023-02-01T02:18:17;10.40;;;3.10;;
10166;SDS011;62970;53.130;8.244;2023-02-01T02:21:08;12.47;;;3.30;;
10166;SDS011;62970;53.130;8.244;2023-02-01T02:36:07;12.50;;;3.27;;
10166;SDS011;62970;53.130;8.244;2023-02-01T02:38:58;10.03;;;2.73;;
10166;SDS011;62970;53.130;8.244;2023-02-01T02:41:39;11.73;;;3.17;;
10166;SDS011;62970;53.130;8.244;2023-02-01T02:44:32;10.30;;;3.43;;
10166;SDS011;62970;53.130;8.244;2023-02-01T02:47:27;9.47;;;3.03;;
10166;SDS011;62970;53.130;8.244;2023-02-01T02:50:08;12.77;;;3.10;;
10166;SDS011;62970;53.130;8.244;2023-02-01T02:53:02;11.33;;;3.17;;
10166;SDS011;62970;53.130;8.244;2023-02-01T02:55:48;13.43;;;3.27;;
10166;SDS011;62970;53.130;8.244;2023-02-01T02:58:32;10.73;;;3.20;;
10166;SDS011;62970;53.130;8.244;2023-02-01T03:01:13;11.60;;;3.30;;
10166;SDS011;62970;53.130;8.244;2023-02-01T03:03:55;10.43;;;2.90;;
10166;SDS011;62970;53.130;8.244;2023-02-01T03:06:36;10.23;;;3.67;;
10166;SDS011;62970;53.130;8.244;2023-02-01T03:09:09;11.20;;;3.27;;
10166;SDS011;62970;53.130;8.244;2023-02-01T03:11:45;7.83;;;2.80;;
10166;SDS011;62970;53.130;8.244;2023-02-01T03:14:29;12.10;;;3.10;;
10166;SDS011;62970;53.130;8.244;2023-02-01T03:17:03;6.30;;;2.67;;
10166;SDS011;62970;53.130;8.244;2023-02-01T03:19:40;9.10;;;3.23;;
10166;SDS011;62970;53.130;8.244;2023-02-01T03:22:18;7.63;;;3.17;;
10166;SDS011;62970;53.130;8.244;2023-02-01T03:24:51;10.40;;;3.07;;
10166;SDS011;62970;53.130;8.244;2023-02-01T03:27:24;11.47;;;2.80;;
10166;SDS011;62970;53.130;8.244;2023-02-01T03:30:00;8.90;;;3.03;;
10166;SDS011;62970;53.130;8.244;2023-02-01T03:32:34;10.17;;;3.20;;
10166;SDS011;62970;53.130;8.244;2023-02-01T03:35:20;8.10;;;3.47;;
10166;SDS011;62970;53.130;8.244;2023-02-01T03:38:01;7.77;;;2.47;;
10166;SDS011;62970;53.130;8.244;2023-02-01T03:40:40;8.40;;;2.57;;
10166;SDS011;62970;53.130;8.244;2023-02-01T03:43:14;8.70;;;2.70;;
10166;SDS011;62970;53.130;8.244;2023-02-01T03:45:49;10.13;;;2.90;;
10166;SDS011;62970;53.130;8.244;2023-02-01T03:48:27;8.07;;;3.30;;
10166;SDS011;62970;53.130;8.244;2023-02-01T03:50:58;7.90;;;2.90;;
10166;SDS011;62970;53.130;8.244;2023-02-01T03:53:34;11.27;;;3.30;;
10166;SDS011;62970;53.130;8.244;2023-02-01T03:56:06;9.30;;;3.03;;
10166;SDS011;62970;53.130;8.244;2023-02-01T03:58:36;10.87;;;3.10;;
10166;SDS011;62970;53.130;8.244;2023-02-01T04:01:06;8.23;;;2.87;;
10166;SDS011;62970;53.130;8.244;2023-02-01T04:03:35;9.77;;;3.10;;
10166;SDS011;62970;53.130;8.244;2023-02-01T04:06:04;10.57;;;3.23;;
10166;SDS011;62970;53.130;8.244;2023-02-01T04:08:37;10.10;;;3.50;;
10166;SDS011;62970;53.130;8.244;2023-02-01T04:11:06;9.63;;;2.87;;
10166;SDS011;62970;53.130;8.244;2023-02-01T04:13:35;8.83;;;3.00;;
10166;SDS011;62970;53.130;8.244;2023-02-01T04:16:05;10.90;;;2.83;;
10166;SDS011;62970;53.130;8.244;2023-02-01T04:18:35;8.83;;;3.07;;
10166;SDS011;62970;53.130;8.244;2023-02-01T04:21:07;8.97;;;2.70;;
10166;SDS011;62970;53.130;8.244;2023-02-01T04:23:38;8.13;;;3.10;;
10166;SDS011;62970;53.130;8.244;2023-02-01T04:26:08;10.43;;;3.13;;
10166;SDS011;62970;53.130;8.244;2023-02-01T04:28:41;9.67;;;2.97;;
10166;SDS011;62970;53.130;8.244;2023-02-01T04:31:12;9.13;;;2.73;;
10166;SDS011;62970;53.130;8.244;2023-02-01T04:33:43;10.57;;;3.27;;
10166;SDS011;62970;53.130;8.244;2023-02-01T04:36:13;11.40;;;2.80;;
10166;SDS011;62970;53.130;8.244;2023-02-01T04:38:47;7.33;;;2.77;;
10166;SDS011;62970;53.130;8.244;2023-02-01T04:41:17;9.83;;;3.10;;
10166;SDS011;62970;53.130;8.244;2023-02-01T04:43:48;14.63;;;3.30;;
10166;SDS011;62970;53.130;8.244;2023-02-01T04:46:19;10.80;;;3.40;;
10166;SDS011;62970;53.130;8.244;2023-02-01T04:48:49;10.30;;;3.27;;
10166;SDS011;62970;53.130;8.244;2023-02-01T04:51:19;12.63;;;3.57;;
10166;SDS011;62970;53.130;8.244;2023-02-01T04:53:51;10.57;;;3.63;;
10166;SDS011;62970;53.130;8.244;2023-02-01T04:56:20;13.30;;;3.47;;
10166;SDS011;62970;53.130;8.244;2023-02-01T04:58:50;14.27;;;3.33;;
10166;SDS011;62970;53.130;8.244;2023-02-01T05:01:20;10.33;;;3.13;;
10166;SDS011;62970;53.130;8.244;2023-02-01T05:03:50;9.07;;;3.37;;
10166;SDS011;62970;53.130;8.244;2023-02-01T05:06:19;6.93;;;2.70;;
10166;SDS011;62970;53.130;8.244;2023-02-01T05:08:52;8.73;;;3.27;;
10166;SDS011;62970;53.130;8.244;2023-02-01T05:11:22;6.40;;;2.60;;
10166;SDS011;62970;53.130;8.244;2023-02-01T05:14:03;9.17;;;2.80;;
10166;SDS011;62970;53.130;8.244;2023-02-01T05:16:33;10.97;;;3.50;;
10166;SDS011;62970;53.130;8.244;2023-02-01T05:19:03;7.10;;;2.70;;
10166;SDS011;62970;53.130;8.244;2023-02-01T05:21:32;6.70;;;2.83;;
10166;SDS011;62970;53.130;8.244;2023-02-01T05:24:05;6.53;;;2.60;;
10166;SDS011;62970;53.130;8.244;2023-02-01T05:26:41;5.73;;;2.30;;
10166;SDS011;62970;53.130;8.244;2023-02-01T05:29:16;6.80;;;2.40;;
10166;SDS011;62970;53.130;8.244;2023-02-01T05:31:46;6.30;;;2.33;;
10166;SDS011;62970;53.130;8.244;2023-02-01T05:34:16;7.80;;;2.67;;
10166;SDS011;62970;53.130;8.244;2023-02-01T05:36:46;9.23;;;2.53;;
10166;SDS011;62970;53.130;8.244;2023-02-01T05:39:18;8.20;;;2.50;;
10166;SDS011;62970;53.130;8.244;2023-02-01T05:41:47;8.97;;;3.23;;
10166;SDS011;62970;53.130;8.244;2023-02-01T05:44:18;10.13;;;3.10;;
10166;SDS011;62970;53.130;8.244;2023-02-01T05:46:48;10.37;;;3.10;;
10166;SDS011;62970;53.130;8.244;2023-02-01T05:49:17;7.33;;;2.77;;
10166;SDS011;62970;53.130;8.244;2023-02-01T05:51:46;8.87;;;3.00;;
10166;SDS011;62970;53.130;8.244;2023-02-01T05:54:18;6.97;;;3.00;;
10166;SDS011;62970;53.130;8.244;2023-02-01T05:56:50;8.30;;;3.37;;
10166;SDS011;62970;53.130;8.244;2023-02-01T05:59:20;9.33;;;2.93;;
10166;SDS011;62970;53.130;8.244;2023-02-01T06:01:50;13.27;;;3.63;;
10166;SDS011;62970;53.130;8.244;2023-02-01T06:04:19;11.30;;;3.20;;
10166;SDS011;62970;53.130;8.244;2023-02-01T06:06:49;14.30;;;3.83;;
10166;SDS011;62970;53.130;8.244;2023-02-01T06:09:22;6.90;;;3.07;;
10166;SDS011;62970;53.130;8.244;2023-02-01T06:11:55;8.07;;;2.73;;
10166;SDS011;62970;53.130;8.244;2023-02-01T06:14:26;8.40;;;2.63;;
10166;SDS011;62970;53.130;8.244;2023-02-01T06:16:55;5.90;;;2.37;;
10166;SDS011;62970;53.130;8.244;2023-02-01T06:19:24;7.23;;;2.50;;
10166;SDS011;62970;53.130;8.244;2023-02-01T06:21:54;8.97;;;2.60;;
10166;SDS011;62970;53.130;8.244;2023-02-01T06:24:26;5.13;;;2.47;;
10166;SDS011;62970;53.130;8.244;2023-02-01T06:26:56;8.17;;;2.23;;
10166;SDS011;62970;53.130;8.244;2023-02-01T06:29:25;5.43;;;2.17;;
10166;SDS011;62970;53.130;8.244;2023-02-01T06:31:54;5.23;;;2.33;;
10166;SDS011;62970;53.130;8.244;2023-02-01T06:34:23;9.20;;;2.93;;
10166;SDS011;62970;53.130;8.244;2023-02-01T06:36:53;7.90;;;2.50;;
10166;SDS011;62970;53.130;8.244;2023-02-01T06:39:26;7.50;;;2.63;;
10166;SDS011;62970;53.130;8.244;2023-02-01T06:41:55;7.40;;;2.40;;
10166;SDS011;62970;53.130;8.244;2023-02-01T06:44:24;9.90;;;2.93;;
10166;SDS011;62970;53.130;8.244;2023-02-01T06:46:53;12.10;;;3.53;;
10166;SDS011;62970;53.130;8.244;2023-02-01T06:49:23;8.50;;;3.23;;
10166;SDS011;62970;53.130;8.244;2023-02-01T06:51:52;11.23;;;3.43;;
10166;SDS011;62970;53.130;8.244;2023-02-01T06:54:21;14.87;;;3.63;;
10166;SDS011;62970;53.130;8.244;2023-02-01T06:56:57;11.50;;;3.47;;
10166;SDS011;62970;53.130;8.244;2023-02-01T06:59:26;15.13;;;3.80;;
10166;SDS011;62970;53.130;8.244;2023-02-01T07:02:22;11.83;;;3.23;;
10166;SDS011;62970;53.130;8.244;2023-02-01T07:05:53;13.93;;;3.27;;
10166;SDS011;62970;53.130;8.244;2023-02-01T07:09:13;11.87;;;3.17;;
10166;SDS011;62970;53.130;8.244;2023-02-01T07:11:50;26.10;;;6.10;;
10166;SDS011;62970;53.130;8.244;2023-02-01T07:14:22;17.37;;;4.80;;
10166;SDS011;62970;53.130;8.244;2023-02-01T07:16:51;13.30;;;3.93;;
10166;SDS011;62970;53.130;8.244;2023-02-01T07:19:21;11.17;;;3.40;;
10166;SDS011;62970;53.130;8.244;2023-02-01T07:21:50;9.77;;;3.27;;
10166;SDS011;62970;53.130;8.244;2023-02-01T07:24:19;10.00;;;3.37;;
10166;SDS011;62970;53.130;8.244;2023-02-01T07:26:49;9.93;;;3.30;;
10166;SDS011;62970;53.130;8.244;2023-02-01T08:42:29;13.70;;;3.27;;
10166;SDS011;62970;53.130;8.244;2023-02-01T08:45:11;11.10;;;3.03;;
10166;SDS011;62970;53.130;8.244;2023-02-01T11:15:26;6.37;;;1.83;;
10166;SDS011;62970;53.130;8.244;2023-02-01T11:17:56;6.63;;;1.87;;
10166;SDS011;62970;53.130;8.244;2023-02-01T11:20:45;5.80;;;2.50;;
10166;SDS011;62970;53.130;8.244;2023-02-01T11:23:17;4.67;;;1.90;;
10166;SDS011;62970;53.130;8.244;2023-02-01T11:25:50;6.10;;;2.10;;
10166;SDS011;62970;53.130;8.244;2023-02-01T11:28:23;5.50;;;2.00;;
10166;SDS011;62970;53.130;8.244;2023-02-01T11:30:59;5.43;;;1.90;;
10166;SDS011;62970;53.130;8.244;2023-02-01T11:33:34;4.77;;;1.90;;
10166;SDS011;62970;53.130;8.244;2023-02-01T11:36:16;4.50;;;1.80;;
10166;SDS011;62970;53.130;8.244;2023-02-01T11:38:53;5.07;;;2.00;;
10166;SDS011;62970;53.130;8.244;2023-02-01T11:44:28;5.27;;;2.00;;
10166;SDS011;62970;53.130;8.244;2023-02-01T11:50:13;4.43;;;2.00;;
10166;SDS011;62970;53.130;8.244;2023-02-01T11:52:54;6.00;;;2.20;;
10166;SDS011;62970;53.130;8.244;2023-02-01T11:55:49;5.90;;;2.10;;
10166;SDS011;62970;53.130;8.244;2023-02-01T11:58:41;7.37;;;2.30;;
10166;SDS011;62970;53.130;8.244;2023-02-01T12:01:39;7.13;;;2.43;;
10166;SDS011;62970;53.130;8.244;2023-02-01T12:04:52;4.67;;;1.50;;
10166;SDS011;62970;53.130;8.244;2023-02-01T12:07:48;2.67;;;1.10;;
10166;SDS011;62970;53.130;8.244;2023-02-01T12:10:35;1.13;;;0.80;;
10166;SDS011;62970;53.130;8.244;2023-02-01T12:13:23;1.57;;;0.90;;
10166;SDS011;62970;53.130;8.244;2023-02-01T12:16:09;2.93;;;1.23;;
10166;SDS011;62970;53.130;8.244;2023-02-01T12:19:04;1.63;;;1.33;;
10166;SDS011;62970;53.130;8.244;2023-02-01T12:22:06;1.70;;;1.00;;
10166;SDS011;62970;53.130;8.244;2023-02-01T12:25:13;1.20;;;1.10;;
10166;SDS011;62970;53.130;8.244;2023-02-01T12:28:06;2.93;;;0.90;;
10166;SDS011;62970;53.130;8.244;2023-02-01T12:31:25;2.17;;;0.87;;
10166;SDS011;62970;53.130;8.244;2023-02-01T12:34:25;2.80;;;0.97;;
10166;SDS011;62970;53.130;8.244;2023-02-01T12:37:26;0.87;;;0.67;;
10166;SDS011;62970;53.130;8.244;2023-02-01T12:40:14;0.80;;;0.80;;
10166;SDS011;62970;53.130;8.244;2023-02-01T12:42:57;0.93;;;0.80;;
10166;SDS011;62970;53.130;8.244;2023-02-01T12:45:33;2.13;;;0.90;;
10166;SDS011;62970;53.130;8.244;2023-02-01T12:48:13;1.07;;;0.77;;
10166;SDS011;62970;53.130;8.244;2023-02-01T12:50:56;0.93;;;0.80;;
10166;SDS011;62970;53.130;8.244;2023-02-01T12:53:35;1.40;;;0.80;;
10166;SDS011;62970;53.130;8.244;2023-02-01T12:56:16;2.20;;;0.90;;
10166;SDS011;62970;53.130;8.244;2023-02-01T12:58:51;3.17;;;1.10;;
10166;SDS011;62970;53.130;8.244;2023-02-01T13:01:26;1.83;;;1.00;;
10166;SDS011;62970;53.130;8.244;2023-02-01T13:04:03;2.07;;;0.90;;
10166;SDS011;62970;53.130;8.244;2023-02-01T13:06:41;1.33;;;1.00;;
10166;SDS011;62970;53.130;8.244;2023-02-01T13:09:21;2.27;;;1.10;;
10166;SDS011;62970;53.130;8.244;2023-02-01T13:11:57;3.03;;;1.20;;
10166;SDS011;62970;53.130;8.244;2023-02-01T13:14:35;1.70;;;1.00;;
10166;SDS011;62970;53.130;8.244;2023-02-01T13:17:12;2.53;;;1.20;;
10166;SDS011;62970;53.130;8.244;2023-02-01T13:19:49;3.20;;;1.37;;
10166;SDS011;62970;53.130;8.244;2023-02-01T13:22:25;2.50;;;1.37;;
10166;SDS011;62970;53.130;8.244;2023-02-01T13:25:02;2.53;;;1.00;;
10166;SDS011;62970;53.130;8.244;2023-02-01T13:27:39;3.33;;;1.27;;
10166;SDS011;62970;53.130;8.244;2023-02-01T13:30:12;5.37;;;1.37;;
10166;SDS011;62970;53.130;8.244;2023-02-01T13:32:55;3.93;;;1.53;;
10166;SDS011;62970;53.130;8.244;2023-02-01T13:35:52;4.40;;;1.43;;
10166;SDS011;62970;53.130;8.244;2023-02-01T13:38:40;3.27;;;1.53;;
10166;SDS011;62970;53.130;8.244;2023-02-01T13:41:53;6.97;;;1.50;;
10166;SDS011;62970;53.130;8.244;2023-02-01T13:44:26;5.37;;;1.87;;
10166;SDS011;62970;53.130;8.244;2023-02-01T13:47:13;5.77;;;1.70;;
10166;SDS011;62970;53.130;8.244;2023-02-01T13:49:56;6.50;;;2.27;;
10166;SDS011;62970;53.130;8.244;2023-02-01T13:52:31;5.10;;;1.83;;
10166;SDS011;62970;53.130;8.244;2023-02-01T13:58:14;8.83;;;2.37;;
10166;SDS011;62970;53.130;8.244;2023-02-01T14:00:48;9.23;;;2.57;;
10166;SDS011;62970;53.130;8.244;2023-02-01T14:03:19;8.77;;;2.10;;
10166;SDS011;62970;53.130;8.244;2023-02-01T14:05:56;7.87;;;2.53;;
10166;SDS011;62970;53.130;8.244;2023-02-01T14:15:20;7.23;;;2.33;;
10166;SDS011;62970;53.130;8.244;2023-02-01T14:17:55;10.57;;;3.23;;
10166;SDS011;62970;53.130;8.244;2023-02-01T14:23:23;12.37;;;2.73;;
10166;SDS011;62970;53.130;8.244;2023-02-01T14:26:10;13.33;;;3.10;;
10166;SDS011;62970;53.130;8.244;2023-02-01T14:28:51;17.20;;;3.63;;
10166;SDS011;62970;53.130;8.244;2023-02-01T14:31:58;12.50;;;3.80;;
10166;SDS011;62970;53.130;8.244;2023-02-01T14:34:38;13.40;;;4.20;;
10166;SDS011;62970;53.130;8.244;2023-02-01T14:37:12;17.63;;;3.87;;
10166;SDS011;62970;53.130;8.244;2023-02-01T14:39:54;10.57;;;3.40;;
10166;SDS011;62970;53.130;8.244;2023-02-01T14:42:27;14.47;;;3.97;;
10166;SDS011;62970;53.130;8.244;2023-02-01T14:51:19;20.17;;;4.40;;
10166;SDS011;62970;53.130;8.244;2023-02-01T14:53:50;16.07;;;4.23;;
10166;SDS011;62970;53.130;8.244;2023-02-01T14:56:20;15.50;;;4.53;;
10166;SDS011;62970;53.130;8.244;2023-02-01T14:58:52;17.87;;;3.83;;
10166;SDS011;62970;53.130;8.244;2023-02-01T15:01:28;17.20;;;3.80;;
10166;SDS011;62970;53.130;8.244;2023-02-01T15:04:08;16.80;;;4.20;;
10166;SDS011;62970;53.130;8.244;2023-02-01T15:06:44;14.43;;;3.73;;
10166;SDS011;62970;53.130;8.244;2023-02-01T15:09:21;13.77;;;3.53;;
10166;SDS011;62970;53.130;8.244;2023-02-01T15:11:59;17.70;;;4.40;;
10166;SDS011;62970;53.130;8.244;2023-02-01T15:14:34;16.33;;;4.37;;
10166;SDS011;62970;53.130;8.244;2023-02-01T15:17:16;12.90;;;3.60;;
10166;SDS011;62970;53.130;8.244;2023-02-01T15:19:57;10.53;;;3.93;;
10166;SDS011;62970;53.130;8.244;2023-02-01T15:22:29;13.70;;;4.23;;
10166;SDS011;62970;53.130;8.244;2023-02-01T15:25:00;12.67;;;3.70;;
10166;SDS011;62970;53.130;8.244;2023-02-01T15:27:31;11.73;;;3.87;;
10166;SDS011;62970;53.130;8.244;2023-02-01T15:30:05;16.10;;;4.13;;
10166;SDS011;62970;53.130;8.244;2023-02-01T15:32:36;18.57;;;4.57;;
10166;SDS011;62970;53.130;8.244;2023-02-01T15:38:25;18.00;;;3.93;;
10166;SDS011;62970;53.130;8.244;2023-02-01T15:41:11;13.90;;;3.83;;
10166;SDS011;62970;53.130;8.244;2023-02-01T15:43:43;14.93;;;4.20;;
10166;SDS011;62970;53.130;8.244;2023-02-01T15:46:21;14.90;;;3.97;;
10166;SDS011;62970;53.130;8.244;2023-02-01T15:48:57;14.10;;;3.87;;
10166;SDS011;62970;53.130;8.244;2023-02-01T15:51:31;12.73;;;3.87;;
10166;SDS011;62970;53.130;8.244;2023-02-01T15:54:02;17.90;;;4.37;;
10166;SDS011;62970;53.130;8.244;2023-02-01T15:56:35;11.63;;;3.60;;
10166;SDS011;62970;53.130;8.244;2023-02-01T15:59:12;12.10;;;3.10;;
10166;SDS011;62970;53.130;8.244;2023-02-01T16:01:44;8.53;;;2.97;;
10166;SDS011;62970;53.130;8.244;2023-02-01T16:04:15;8.30;;;2.40;;
10166;SDS011;62970;53.130;8.244;2023-02-01T16:06:51;7.53;;;2.40;;
10166;SDS011;62970;53.130;8.244;2023-02-01T16:09:23;9.40;;;2.63;;
10166;SDS011;62970;53.130;8.244;2023-02-01T16:12:04;5.70;;;2.37;;
10166;SDS011;62970;53.130;8.244;2023-02-01T16:14:56;5.57;;;2.20;;
10166;SDS011;62970;53.130;8.244;2023-02-01T16:17:26;9.17;;;2.17;;
10166;SDS011;62970;53.130;8.244;2023-02-01T16:19:56;6.27;;;1.67;;
10166;SDS011;62970;53.130;8.244;2023-02-01T16:22:29;7.93;;;2.40;;
10166;SDS011;62970;53.130;8.244;2023-02-01T16:24:58;6.17;;;2.30;;
10166;SDS011;62970;53.130;8.244;2023-02-01T16:27:28;7.40;;;2.37;;
10166;SDS011;62970;53.130;8.244;2023-02-01T16:29:57;8.00;;;2.77;;
10166;SDS011;62970;53.130;8.244;2023-02-01T16:32:27;11.80;;;2.80;;
10166;SDS011;62970;53.130;8.244;2023-02-01T16:34:57;6.10;;;2.50;;
10166;SDS011;62970;53.130;8.244;2023-02-01T16:37:29;10.37;;;2.70;;
10166;SDS011;62970;53.130;8.244;2023-02-01T16:40:01;10.57;;;3.50;;
10166;SDS011;62970;53.130;8.244;2023-02-01T16:42:31;16.00;;;3.60;;
10166;SDS011;62970;53.130;8.244;2023-02-01T16:45:00;9.60;;;3.10;;
10166;SDS011;62970;53.130;8.244;2023-02-01T16:47:31;10.53;;;3.07;;
10166;SDS011;62970;53.130;8.244;2023-02-01T16:50:03;10.00;;;3.57;;
10166;SDS011;62970;53.130;8.244;2023-02-01T16:52:45;9.23;;;3.10;;
10166;SDS011;62970;53.130;8.244;2023-02-01T16:55:15;11.00;;;3.00;;
10166;SDS011;62970;53.130;8.244;2023-02-01T16:57:46;11.20;;;2.80;;
10166;SDS011;62970;53.130;8.244;2023-02-01T17:00:17;10.83;;;2.77;;
10166;SDS011;62970;53.130;8.244;2023-02-01T17:02:50;10.80;;;2.87;;
10166;SDS011;62970;53.130;8.244;2023-02-01T17:05:20;12.10;;;3.20;;
10166;SDS011;62970;53.130;8.244;2023-02-01T17:07:54;11.90;;;2.60;;
10166;SDS011;62970;53.130;8.244;2023-02-01T17:10:29;10.40;;;2.80;;
10166;SDS011;62970;53.130;8.244;2023-02-01T17:12:59;12.00;;;3.37;;
10166;SDS011;62970;53.130;8.244;2023-02-01T17:15:31;13.87;;;3.90;;
10166;SDS011;62970;53.130;8.244;2023-02-01T17:18:02;12.03;;;3.30;;
10166;SDS011;62970;53.130;8.244;2023-02-01T17:20:36;12.37;;;3.37;;
10166;SDS011;62970;53.130;8.244;2023-02-01T17:23:08;14.07;;;3.70;;
10166;SDS011;62970;53.130;8.244;2023-02-01T17:25:41;16.63;;;4.20;;
10166;SDS011;62970;53.130;8.244;2023-02-01T17:28:12;15.07;;;3.87;;
10166;SDS011;62970;53.130;8.244;2023-02-01T17:30:41;12.97;;;3.93;;
10166;SDS011;62970;53.130;8.244;2023-02-01T17:33:14;13.27;;;3.93;;
10166;SDS011;62970;53.130;8.244;2023-02-01T17:35:54;13.43;;;3.23;;
10166;SDS011;62970;53.130;8.244;2023-02-01T17:38:29;9.73;;;3.07;;
10166;SDS011;62970;53.130;8.244;2023-02-01T17:40:59;13.73;;;4.17;;
10166;SDS011;62970;53.130;8.244;2023-02-01T17:43:28;11.40;;;3.87;;
10166;SDS011;62970;53.130;8.244;2023-02-01T17:45:59;18.33;;;4.53;;
10166;SDS011;62970;53.130;8.244;2023-02-01T17:48:32;13.17;;;3.97;;
10166;SDS011;62970;53.130;8.244;2023-02-01T17:51:01;8.40;;;3.53;;
10166;SDS011;62970;53.130;8.244;2023-02-01T17:53:42;13.10;;;3.43;;
10166;SDS011;62970;53.130;8.244;2023-02-01T17:56:13;15.03;;;4.07;;
10166;SDS011;62970;53.130;8.244;2023-02-01T17:58:44;10.83;;;3.53;;
10166;SDS011;62970;53.130;8.244;2023-02-01T18:01:20;16.73;;;4.07;;
10166;SDS011;62970;53.130;8.244;2023-02-01T18:04:05;12.47;;;3.93;;
10166;SDS011;62970;53.130;8.244;2023-02-01T18:06:34;12.57;;;3.97;;
10166;SDS011;62970;53.130;8.244;2023-02-01T18:09:06;14.93;;;4.03;;
10166;SDS011;62970;53.130;8.244;2023-02-01T18:11:35;11.10;;;3.53;;
10166;SDS011;62970;53.130;8.244;2023-02-01T18:14:05;15.23;;;3.73;;
10166;SDS011;62970;53.130;8.244;2023-02-01T18:16:38;10.37;;;3.27;;
10166;SDS011;62970;53.130;8.244;2023-02-01T18:19:08;10.63;;;3.60;;
10166;SDS011;62970;53.130;8.244;2023-02-01T18:21:38;8.57;;;2.93;;
10166;SDS011;62970;53.130;8.244;2023-02-01T18:24:14;12.07;;;3.70;;
10166;SDS011;62970;53.130;8.244;2023-02-01T18:26:43;13.30;;;4.10;;
10166;SDS011;62970;53.130;8.244;2023-02-01T18:29:12;11.17;;;3.67;;
10166;SDS011;62970;53.130;8.244;2023-02-01T18:31:44;9.70;;;3.70;;
10166;SDS011;62970;53.130;8.244;2023-02-01T18:34:15;9.00;;;3.23;;
10166;SDS011;62970;53.130;8.244;2023-02-01T18:36:46;16.97;;;3.87;;
10166;SDS011;62970;53.130;8.244;2023-02-01T18:39:18;13.93;;;4.10;;
10166;SDS011;62970;53.130;8.244;2023-02-01T18:41:47;12.37;;;3.17;;
10166;SDS011;62970;53.130;8.244;2023-02-01T18:44:18;12.67;;;2.93;;
10166;SDS011;62970;53.130;8.244;2023-02-01T18:46:48;9.70;;;2.93;;
10166;SDS011;62970;53.130;8.244;2023-02-01T18:49:17;9.07;;;3.00;;
10166;SDS011;62970;53.130;8.244;2023-02-01T18:51:47;11.60;;;3.30;;
10166;SDS011;62970;53.130;8.244;2023-02-01T18:54:20;16.60;;;3.73;;
10166;SDS011;62970;53.130;8.244;2023-02-01T18:56:49;12.83;;;3.60;;
10166;SDS011;62970;53.130;8.244;2023-02-01T18:59:19;12.50;;;4.13;;
10166;SDS011;62970;53.130;8.244;2023-02-01T19:01:49;13.10;;;3.50;;
10166;SDS011;62970;53.130;8.244;2023-02-01T19:04:17;9.77;;;3.07;;
10166;SDS011;62970;53.130;8.244;2023-02-01T19:06:46;13.13;;;3.43;;
10166;SDS011;62970;53.130;8.244;2023-02-01T19:09:16;10.93;;;3.20;;
10166;SDS011;62970;53.130;8.244;2023-02-01T19:11:47;12.90;;;3.13;;
10166;SDS011;62970;53.130;8.244;2023-02-01T19:14:16;13.20;;;3.40;;
10166;SDS011;62970;53.130;8.244;2023-02-01T19:16:46;11.93;;;2.80;;
10166;SDS011;62970;53.130;8.244;2023-02-01T19:19:19;14.63;;;3.30;;
10166;SDS011;62970;53.130;8.244;2023-02-01T19:21:48;9.83;;;3.20;;
10166;SDS011;62970;53.130;8.244;2023-02-01T19:24:17;11.00;;;3.63;;
10166;SDS011;62970;53.130;8.244;2023-02-01T19:26:54;11.23;;;3.30;;
10166;SDS011;62970;53.130;8.244;2023-02-01T19:29:26;13.23;;;3.83;;
10166;SDS011;62970;53.130;8.244;2023-02-01T19:31:55;10.43;;;3.17;;
10166;SDS011;62970;53.130;8.244;2023-02-01T19:34:26;15.60;;;3.93;;
10166;SDS011;62970;53.130;8.244;2023-02-01T19:36:56;11.47;;;3.23;;
10166;SDS011;62970;53.130;8.244;2023-02-01T19:39:27;12.47;;;4.10;;
10166;SDS011;62970;53.130;8.244;2023-02-01T19:42:00;10.33;;;3.23;;
10166;SDS011;62970;53.130;8.244;2023-02-01T19:44:32;13.57;;;3.50;;
10166;SDS011;62970;53.130;8.244;2023-02-01T19:47:04;12.80;;;3.30;;
10166;SDS011;62970;53.130;8.244;2023-02-01T19:49:37;10.57;;;3.30;;
10166;SDS011;62970;53.130;8.244;2023-02-01T19:52:06;12.60;;;3.23;;